• Join FlightAware (Why Join?)
  • Login
  • US Flag 
09:49AM EST


 

Airport Tracker/Info


-or-


 

Live Flight TrackerFlight Track Log ✈ LYM1725 ✈ 08-May-2013 ✈ KRIW - KDEN

Flight Track Log - Related Links

Times and Time Zones

All times are in EDT time to prevent confusion due to time zone crossing. See the LYM1725 flight status page for this flight to view local times or setup timezone preferences in your user account.

Time Position Orientation Groundspeed Altitude Reporting Facility
EDT Latitude Longitude Course Direction KTS MPH feet Rate Location/Type
09:22PM 42.9994 -108.3278 137° Southeast 158 182 9,000  Level Salt Lake Center
09:23PM 42.9672 -108.2572 122° Southeast 202 232 10,300 1,260 Climbing Salt Lake Center
09:24PM 42.9344 -108.1936 125° Southeast 206 237 11,600 1,320 Climbing Salt Lake Center
09:25PM 42.8936 -108.1156 126° Southeast 213 245 13,000 1,140 Climbing Salt Lake Center
09:26PM 42.8611 -108.0511 125° Southeast 220 253 14,000 960 Climbing Salt Lake Center
09:27PM 42.8278 -107.9789 122° Southeast 224 258 15,000 1,020 Climbing Salt Lake Center
09:28PM 42.7751 -108.0957 137° Southeast  Level Estimated
09:29PM 42.7867 -107.9033 127° Southeast 227 261 16,200  Level Salt Lake Center
09:30PM 42.7500 -107.8314 125° Southeast 235 270 17,100 960 Climbing Salt Lake Center
09:31PM 42.7106 -107.7519 124° Southeast 230 265 18,200 1,020 Climbing Salt Lake Center
09:32PM 42.6706 -107.6869 130° Southeast 232 267 19,200 960 Climbing Salt Lake Center
09:33PM 42.6217 -107.6186 134° Southeast 229 264 20,200 780 Climbing Salt Lake Center
09:34PM 42.5794 -107.5608 135° Southeast 226 260 20,900 360 Climbing Salt Lake Center
09:35PM 42.5331 -107.4986 135° Southeast 233 268 21,000  Climbing Salt Lake Center
09:36PM 42.4775 -107.4217 134° Southeast 255 293 21,000  Level Salt Lake Center
09:37PM 42.4300 -107.3506 132° Southeast 263 303 21,000  Level Salt Lake Center
09:38PM 42.3869 -107.2778 129° Southeast 263 303 21,000  Level Denver Center
09:39PM 42.3386 -107.2039 131° Southeast 271 312 21,000  Level Denver Center
09:40PM 42.2844 -107.1192 131° Southeast 268 308 21,000  Level Denver Center
09:41PM 42.2292 -107.0339 131° Southeast 271 312 21,000  Level Denver Center
09:42PM 42.1758 -106.9497 131° Southeast 266 306 21,000  Level Denver Center
09:43PM 42.1289 -106.8786 132° Southeast 265 305 21,000  Level Denver Center
09:44PM 42.0733 -106.7936 131° Southeast 269 310 21,000  Level Denver Center
09:45PM 42.0275 -106.7233 131° Southeast 263 303 21,000  Level Denver Center
09:46PM 41.9717 -106.6417 133° Southeast 265 305 21,000  Level Denver Center
09:47PM 41.9256 -106.5722 132° Southeast 261 300 21,000  Level Denver Center
09:48PM 41.8708 -106.4933 133° Southeast 263 303 21,000  Level Denver Center
09:49PM 41.8225 -106.4239 133° Southeast 265 305 21,000  Level Denver Center
09:50PM 41.7667 -106.3444 133° Southeast 263 303 21,000  Level Denver Center
09:51PM 41.7186 -106.2756 133° Southeast 264 304 21,000  Level Denver Center
09:52PM 41.6556 -106.1847 133° Southeast 260 299 21,000  Level Denver Center
09:53PM 41.6067 -106.1161 134° Southeast 263 303 21,000  Level Denver Center
09:54PM 41.5519 -106.0336 132° Southeast 264 304 21,000  Level Denver Center
09:56PM 41.5075 -105.9606 129° Southeast 264 304 21,000  Level Denver Center
09:57PM 41.4608 -105.8906 132° Southeast 265 305 21,000  Level Denver Center
09:58PM 41.3997 -105.8128 136° Southeast 270 311 21,000  Level Denver Center
09:59PM 41.3503 -105.7436 134° Southeast 271 312 21,000  Level Denver Center
10:00PM 41.2958 -105.6608 131° Southeast 268 308 21,000  Level Denver Center
10:01PM 41.2497 -105.5889 130° Southeast 267 307 21,000  Level Denver Center
10:02PM 41.1928 -105.5075 133° Southeast 269 310 21,000 -300 Level Denver Center
10:03PM 41.1450 -105.4367 132° Southeast 269 310 20,500 -840 Descending Denver Center
10:04PM 41.0942 -105.3636 133° Southeast 275 316 19,400 -1,200 Descending Denver Center
10:05PM 41.0294 -105.2689 132° Southeast 297 342 18,100 -1,320 Descending Denver Center
10:06PM 40.9769 -105.1892 131° Southeast 301 346 16,800 -2,220 Descending Denver Center
10:07PM 40.9181 -105.0981 131° Southeast 297 342 13,600 -1,800 Descending Denver Center
10:08PM 40.8614 -105.0208 134° Southeast 291 335 13,100 -300 Descending Denver Center
10:09PM 40.8058 -104.9786 150° Southeast 264 304 13,100 -300 Level Denver Center
10:10PM 40.7356 -104.9325 154° Southeast 267 307 12,500 -780 Descending Denver Center
10:11PM 40.6633 -104.8825 152° Southeast 288 331 11,500 -780 Descending Denver Center
10:12PM 40.5936 -104.8417 156° South 276 318 10,800 -660 Descending Denver Center
10:13PM 40.5139 -104.7911 154° Southeast 261 300 10,000 -360 Descending Denver Center
10:15PM 40.4358 -104.7428 155° Southeast 255 293 10,000  Level Denver Center
10:16PM 40.3656 -104.6994 155° Southeast 229 264 10,000  Level Denver Center
10:17PM 40.2956 -104.6831 170° South 240 276 10,000  Level Denver Center
10:18PM 40.2297 -104.6836 180° South 237 273 10,000 -60 Level Denver Center
10:19PM 40.1667 -104.6844 181° South 229 264 9,900 -240 Descending Denver Center
10:20PM 40.0997 -104.6850 180° South 224 258 9,600 -720 Descending Denver Center
10:21PM 40.0428 -104.6856 180° South 210 242 8,500 -1,200 Descending Denver Center
10:22PM 39.9797 -104.6864 181° South 211 243 7,200 -1,200 Descending Denver Center
10:23PM 39.9242 -104.6867 180° South 202 232 6,100 -960 Descending Denver Center
10:24PM 39.8836 -104.6875 181° South 142 163 5,300 -840 Descending Denver Center
10:26PM 39.8617 -104.6732 169° South  Level Estimated
10:33PM 39.8617 -104.6732 169° South  Level Estimated
10:34PM 39.8617 -104.6732 169° South  Level Estimated